sensor_id;sensor_type;location;lat;lon;timestamp;temperature;humidity
8888;DHT22;4480;52.370;9.748;2023-02-01T00:01:46;5.40;99.90
8888;DHT22;4480;52.370;9.748;2023-02-01T00:04:13;5.40;99.90
8888;DHT22;4480;52.370;9.748;2023-02-01T00:06:39;5.40;99.90
8888;DHT22;4480;52.370;9.748;2023-02-01T00:09:06;5.40;99.90
8888;DHT22;4480;52.370;9.748;2023-02-01T00:11:33;5.40;99.90
8888;DHT22;4480;52.370;9.748;2023-02-01T00:14:02;5.40;99.90
8888;DHT22;4480;52.370;9.748;2023-02-01T00:16:30;5.40;99.90
8888;DHT22;4480;52.370;9.748;2023-02-01T00:18:59;5.40;99.90
8888;DHT22;4480;52.370;9.748;2023-02-01T00:21:27;5.40;99.90
8888;DHT22;4480;52.370;9.748;2023-02-01T00:23:54;5.30;99.90
8888;DHT22;4480;52.370;9.748;2023-02-01T00:26:27;5.30;99.90
8888;DHT22;4480;52.370;9.748;2023-02-01T00:28:56;5.30;99.90
8888;DHT22;4480;52.370;9.748;2023-02-01T00:31:24;5.30;99.90
8888;DHT22;4480;52.370;9.748;2023-02-01T00:33:51;5.40;99.90
8888;DHT22;4480;52.370;9.748;2023-02-01T00:36:18;5.30;99.90
8888;DHT22;4480;52.370;9.748;2023-02-01T00:38:45;5.30;99.90
8888;DHT22;4480;52.370;9.748;2023-02-01T00:41:14;5.30;99.90
8888;DHT22;4480;52.370;9.748;2023-02-01T00:43:41;5.30;99.90
8888;DHT22;4480;52.370;9.748;2023-02-01T00:46:08;5.30;99.90
8888;DHT22;4480;52.370;9.748;2023-02-01T00:48:37;5.30;99.90
8888;DHT22;4480;52.370;9.748;2023-02-01T00:51:07;5.30;99.90
8888;DHT22;4480;52.370;9.748;2023-02-01T00:53:34;5.30;99.90
8888;DHT22;4480;52.370;9.748;2023-02-01T00:56:01;5.30;99.90
8888;DHT22;4480;52.370;9.748;2023-02-01T00:58:28;5.30;99.90
8888;DHT22;4480;52.370;9.748;2023-02-01T01:01:03;5.30;99.90
8888;DHT22;4480;52.370;9.748;2023-02-01T01:03:31;5.30;99.90
8888;DHT22;4480;52.370;9.748;2023-02-01T01:06:02;5.20;99.90
8888;DHT22;4480;52.370;9.748;2023-02-01T01:08:29;5.20;99.90
8888;DHT22;4480;52.370;9.748;2023-02-01T01:10:56;5.20;99.90
8888;DHT22;4480;52.370;9.748;2023-02-01T01:13:23;5.10;99.90
8888;DHT22;4480;52.370;9.748;2023-02-01T01:15:50;5.20;99.90
8888;DHT22;4480;52.370;9.748;2023-02-01T01:18:16;5.20;99.90
8888;DHT22;4480;52.370;9.748;2023-02-01T01:20:43;5.20;99.90
8888;DHT22;4480;52.370;9.748;2023-02-01T01:23:11;5.20;99.90
8888;DHT22;4480;52.370;9.748;2023-02-01T01:25:38;5.20;99.90
8888;DHT22;4480;52.370;9.748;2023-02-01T01:28:06;5.20;99.90
8888;DHT22;4480;52.370;9.748;2023-02-01T01:30:33;5.20;99.90
8888;DHT22;4480;52.370;9.748;2023-02-01T01:33:00;5.30;99.90
8888;DHT22;4480;52.370;9.748;2023-02-01T01:35:28;5.30;99.90
8888;DHT22;4480;52.370;9.748;2023-02-01T01:37:55;5.30;99.90
8888;DHT22;4480;52.370;9.748;2023-02-01T01:40:24;5.30;99.90
8888;DHT22;4480;52.370;9.748;2023-02-01T01:42:51;5.30;99.90
8888;DHT22;4480;52.370;9.748;2023-02-01T01:45:23;5.30;99.90
8888;DHT22;4480;52.370;9.748;2023-02-01T01:47:53;5.30;99.90
8888;DHT22;4480;52.370;9.748;2023-02-01T01:50:23;5.30;99.90
8888;DHT22;4480;52.370;9.748;2023-02-01T01:52:52;5.30;99.90
8888;DHT22;4480;52.370;9.748;2023-02-01T01:55:24;5.30;99.90
8888;DHT22;4480;52.370;9.748;2023-02-01T01:57:55;5.30;99.90
8888;DHT22;4480;52.370;9.748;2023-02-01T02:00:22;5.30;99.90
8888;DHT22;4480;52.370;9.748;2023-02-01T02:02:54;5.30;99.90
8888;DHT22;4480;52.370;9.748;2023-02-01T02:05:23;5.30;99.90
8888;DHT22;4480;52.370;9.748;2023-02-01T02:07:52;5.30;99.90
8888;DHT22;4480;52.370;9.748;2023-02-01T02:10:20;5.30;99.90
8888;DHT22;4480;52.370;9.748;2023-02-01T02:13:08;5.20;99.90
8888;DHT22;4480;52.370;9.748;2023-02-01T02:15:37;5.30;99.90
8888;DHT22;4480;52.370;9.748;2023-02-01T02:18:12;5.30;99.90
8888;DHT22;4480;52.370;9.748;2023-02-01T02:20:58;5.30;99.90
8888;DHT22;4480;52.370;9.748;2023-02-01T02:23:58;5.30;99.90
8888;DHT22;4480;52.370;9.748;2023-02-01T02:27:02;5.30;99.90
8888;DHT22;4480;52.370;9.748;2023-02-01T02:32:52;5.40;99.90
8888;DHT22;4480;52.370;9.748;2023-02-01T02:35:30;5.40;99.90
8888;DHT22;4480;52.370;9.748;2023-02-01T02:38:09;5.40;99.90
8888;DHT22;4480;52.370;9.748;2023-02-01T02:40:47;5.40;99.90
8888;DHT22;4480;52.370;9.748;2023-02-01T02:43:20;5.40;99.90
8888;DHT22;4480;52.370;9.748;2023-02-01T02:46:09;5.40;99.90
8888;DHT22;4480;52.370;9.748;2023-02-01T02:49:02;5.40;99.90
8888;DHT22;4480;52.370;9.748;2023-02-01T02:51:35;5.40;99.90
8888;DHT22;4480;52.370;9.748;2023-02-01T02:54:23;5.40;99.90
8888;DHT22;4480;52.370;9.748;2023-02-01T02:57:10;5.40;99.90
8888;DHT22;4480;52.370;9.748;2023-02-01T02:59:57;5.40;99.90
8888;DHT22;4480;52.370;9.748;2023-02-01T03:02:42;5.50;99.90
8888;DHT22;4480;52.370;9.748;2023-02-01T03:05:32;5.50;99.90
8888;DHT22;4480;52.370;9.748;2023-02-01T03:08:08;5.50;99.90
8888;DHT22;4480;52.370;9.748;2023-02-01T03:10:42;5.50;99.90
8888;DHT22;4480;52.370;9.748;2023-02-01T03:13:13;5.50;99.90
8888;DHT22;4480;52.370;9.748;2023-02-01T03:15:45;5.50;99.90
8888;DHT22;4480;52.370;9.748;2023-02-01T03:18:18;5.50;99.90
8888;DHT22;4480;52.370;9.748;2023-02-01T03:20:48;5.50;99.90
8888;DHT22;4480;52.370;9.748;2023-02-01T03:23:20;5.50;99.90
8888;DHT22;4480;52.370;9.748;2023-02-01T03:25:48;5.50;99.90
8888;DHT22;4480;52.370;9.748;2023-02-01T03:28:18;5.50;99.90
8888;DHT22;4480;52.370;9.748;2023-02-01T03:30:48;5.50;99.90
8888;DHT22;4480;52.370;9.748;2023-02-01T03:33:17;5.50;99.90
8888;DHT22;4480;52.370;9.748;2023-02-01T03:35:53;5.50;99.90
8888;DHT22;4480;52.370;9.748;2023-02-01T03:38:24;5.50;99.90
8888;DHT22;4480;52.370;9.748;2023-02-01T03:40:57;5.50;99.90
8888;DHT22;4480;52.370;9.748;2023-02-01T03:43:27;5.50;99.90
8888;DHT22;4480;52.370;9.748;2023-02-01T03:45:59;5.60;99.90
8888;DHT22;4480;52.370;9.748;2023-02-01T03:48:27;5.50;99.90
8888;DHT22;4480;52.370;9.748;2023-02-01T03:50:57;5.50;99.90
8888;DHT22;4480;52.370;9.748;2023-02-01T03:53:27;5.50;99.90
8888;DHT22;4480;52.370;9.748;2023-02-01T03:55:55;5.40;99.90
8888;DHT22;4480;52.370;9.748;2023-02-01T03:58:23;5.40;99.90
8888;DHT22;4480;52.370;9.748;2023-02-01T04:00:52;5.40;99.90
8888;DHT22;4480;52.370;9.748;2023-02-01T04:03:19;5.40;99.90
8888;DHT22;4480;52.370;9.748;2023-02-01T04:05:47;5.40;99.90
8888;DHT22;4480;52.370;9.748;2023-02-01T04:11:06;5.40;99.90
8888;DHT22;4480;52.370;9.748;2023-02-01T04:13:33;5.50;99.90
8888;DHT22;4480;52.370;9.748;2023-02-01T04:16:00;5.50;99.90
8888;DHT22;4480;52.370;9.748;2023-02-01T04:18:27;5.60;99.90
8888;DHT22;4480;52.370;9.748;2023-02-01T04:20:53;5.60;99.90
8888;DHT22;4480;52.370;9.748;2023-02-01T04:23:20;5.60;99.90
8888;DHT22;4480;52.370;9.748;2023-02-01T04:25:47;5.60;99.90
8888;DHT22;4480;52.370;9.748;2023-02-01T04:28:15;5.60;99.90
8888;DHT22;4480;52.370;9.748;2023-02-01T04:30:42;5.60;99.90
8888;DHT22;4480;52.370;9.748;2023-02-01T04:33:09;5.60;99.90
8888;DHT22;4480;52.370;9.748;2023-02-01T04:35:39;5.60;99.90
8888;DHT22;4480;52.370;9.748;2023-02-01T04:38:06;5.60;99.90
8888;DHT22;4480;52.370;9.748;2023-02-01T04:40:33;5.60;99.90
8888;DHT22;4480;52.370;9.748;2023-02-01T04:43:00;5.60;99.90
8888;DHT22;4480;52.370;9.748;2023-02-01T04:45:30;5.60;99.90
8888;DHT22;4480;52.370;9.748;2023-02-01T04:47:57;5.60;99.90
8888;DHT22;4480;52.370;9.748;2023-02-01T04:50:24;5.70;99.90
8888;DHT22;4480;52.370;9.748;2023-02-01T04:52:50;5.70;99.90
8888;DHT22;4480;52.370;9.748;2023-02-01T04:55:17;5.70;99.90
8888;DHT22;4480;52.370;9.748;2023-02-01T04:57:44;5.60;99.90
8888;DHT22;4480;52.370;9.748;2023-02-01T05:00:12;5.40;99.90
8888;DHT22;4480;52.370;9.748;2023-02-01T05:02:40;5.20;99.90
8888;DHT22;4480;52.370;9.748;2023-02-01T05:05:07;5.00;99.90
8888;DHT22;4480;52.370;9.748;2023-02-01T05:07:34;4.80;99.90
8888;DHT22;4480;52.370;9.748;2023-02-01T05:10:01;4.70;99.90
8888;DHT22;4480;52.370;9.748;2023-02-01T05:12:28;4.70;99.90
8888;DHT22;4480;52.370;9.748;2023-02-01T05:15:12;4.60;99.90
8888;DHT22;4480;52.370;9.748;2023-02-01T05:17:40;4.50;99.90
8888;DHT22;4480;52.370;9.748;2023-02-01T05:20:10;4.50;99.90
8888;DHT22;4480;52.370;9.748;2023-02-01T05:22:37;4.50;99.90
8888;DHT22;4480;52.370;9.748;2023-02-01T05:25:05;4.40;99.90
8888;DHT22;4480;52.370;9.748;2023-02-01T05:27:31;4.40;99.90
8888;DHT22;4480;52.370;9.748;2023-02-01T05:29:58;4.40;99.90
8888;DHT22;4480;52.370;9.748;2023-02-01T05:32:25;4.30;99.90
8888;DHT22;4480;52.370;9.748;2023-02-01T05:34:53;4.30;99.90
8888;DHT22;4480;52.370;9.748;2023-02-01T05:37:20;4.30;99.90
8888;DHT22;4480;52.370;9.748;2023-02-01T05:39:47;4.30;99.90
8888;DHT22;4480;52.370;9.748;2023-02-01T05:42:14;4.30;99.90
8888;DHT22;4480;52.370;9.748;2023-02-01T05:44:41;4.30;99.90
8888;DHT22;4480;52.370;9.748;2023-02-01T05:47:07;4.30;99.90
8888;DHT22;4480;52.370;9.748;2023-02-01T05:49:34;4.30;99.90
8888;DHT22;4480;52.370;9.748;2023-02-01T05:52:03;4.30;99.90
8888;DHT22;4480;52.370;9.748;2023-02-01T05:54:30;4.40;99.90
8888;DHT22;4480;52.370;9.748;2023-02-01T05:56:56;4.40;99.90
8888;DHT22;4480;52.370;9.748;2023-02-01T05:59:23;4.50;99.90
8888;DHT22;4480;52.370;9.748;2023-02-01T06:01:50;4.50;99.90
8888;DHT22;4480;52.370;9.748;2023-02-01T06:04:17;4.60;99.90
8888;DHT22;4480;52.370;9.748;2023-02-01T06:06:44;4.60;99.90
8888;DHT22;4480;52.370;9.748;2023-02-01T06:09:12;4.60;99.90
8888;DHT22;4480;52.370;9.748;2023-02-01T06:11:39;4.60;99.90
8888;DHT22;4480;52.370;9.748;2023-02-01T06:14:06;4.60;99.90
8888;DHT22;4480;52.370;9.748;2023-02-01T06:16:33;4.60;99.90
8888;DHT22;4480;52.370;9.748;2023-02-01T06:19:03;4.70;99.90
8888;DHT22;4480;52.370;9.748;2023-02-01T06:21:29;4.70;99.90
8888;DHT22;4480;52.370;9.748;2023-02-01T06:23:56;4.70;99.90
8888;DHT22;4480;52.370;9.748;2023-02-01T06:26:25;4.80;99.90
8888;DHT22;4480;52.370;9.748;2023-02-01T06:28:54;4.80;99.90
8888;DHT22;4480;52.370;9.748;2023-02-01T06:31:22;4.80;99.90
8888;DHT22;4480;52.370;9.748;2023-02-01T06:33:51;4.80;99.90
8888;DHT22;4480;52.370;9.748;2023-02-01T06:36:18;4.80;99.90
8888;DHT22;4480;52.370;9.748;2023-02-01T06:38:46;4.80;99.90
8888;DHT22;4480;52.370;9.748;2023-02-01T06:41:14;4.80;99.90
8888;DHT22;4480;52.370;9.748;2023-02-01T06:43:42;4.70;99.90
8888;DHT22;4480;52.370;9.748;2023-02-01T06:46:11;4.70;99.90
8888;DHT22;4480;52.370;9.748;2023-02-01T06:48:38;4.70;99.90
8888;DHT22;4480;52.370;9.748;2023-02-01T06:51:05;4.70;99.90
8888;DHT22;4480;52.370;9.748;2023-02-01T06:53:32;4.60;99.90
8888;DHT22;4480;52.370;9.748;2023-02-01T06:56:01;4.60;99.90
8888;DHT22;4480;52.370;9.748;2023-02-01T06:58:29;4.60;99.90
8888;DHT22;4480;52.370;9.748;2023-02-01T07:00:58;4.60;99.90
8888;DHT22;4480;52.370;9.748;2023-02-01T07:03:30;4.50;99.90
8888;DHT22;4480;52.370;9.748;2023-02-01T07:05:57;4.60;99.90
8888;DHT22;4480;52.370;9.748;2023-02-01T07:08:24;4.60;99.90
8888;DHT22;4480;52.370;9.748;2023-02-01T07:10:51;4.60;99.90
8888;DHT22;4480;52.370;9.748;2023-02-01T07:13:18;4.70;99.90
8888;DHT22;4480;52.370;9.748;2023-02-01T07:15:45;4.70;99.90
8888;DHT22;4480;52.370;9.748;2023-02-01T07:18:14;4.60;99.90
8888;DHT22;4480;52.370;9.748;2023-02-01T07:20:41;4.70;99.90
8888;DHT22;4480;52.370;9.748;2023-02-01T07:23:09;4.70;99.90
8888;DHT22;4480;52.370;9.748;2023-02-01T07:25:36;4.70;99.90
8888;DHT22;4480;52.370;9.748;2023-02-01T07:28:03;4.70;99.90
8888;DHT22;4480;52.370;9.748;2023-02-01T07:30:30;4.70;99.90
8888;DHT22;4480;52.370;9.748;2023-02-01T07:32:56;4.70;99.90
8888;DHT22;4480;52.370;9.748;2023-02-01T07:35:27;4.80;99.90
8888;DHT22;4480;52.370;9.748;2023-02-01T07:37:54;4.80;99.90
8888;DHT22;4480;52.370;9.748;2023-02-01T07:40:21;4.90;99.90
8888;DHT22;4480;52.370;9.748;2023-02-01T07:42:53;4.90;99.90
8888;DHT22;4480;52.370;9.748;2023-02-01T07:45:20;5.00;99.90
8888;DHT22;4480;52.370;9.748;2023-02-01T07:47:47;5.00;99.90
8888;DHT22;4480;52.370;9.748;2023-02-01T07:50:15;5.10;99.90
8888;DHT22;4480;52.370;9.748;2023-02-01T07:52:43;5.10;99.90
8888;DHT22;4480;52.370;9.748;2023-02-01T07:55:10;5.10;99.90
8888;DHT22;4480;52.370;9.748;2023-02-01T07:57:36;5.20;99.90
8888;DHT22;4480;52.370;9.748;2023-02-01T08:00:04;5.30;99.90
8888;DHT22;4480;52.370;9.748;2023-02-01T08:02:48;5.30;99.90
8888;DHT22;4480;52.370;9.748;2023-02-01T08:05:15;5.30;99.90
8888;DHT22;4480;52.370;9.748;2023-02-01T08:07:43;5.40;99.90
8888;DHT22;4480;52.370;9.748;2023-02-01T08:10:10;5.50;99.90
8888;DHT22;4480;52.370;9.748;2023-02-01T08:12:38;5.50;99.90
8888;DHT22;4480;52.370;9.748;2023-02-01T08:15:06;5.50;99.90
8888;DHT22;4480;52.370;9.748;2023-02-01T08:17:33;5.60;99.90
8888;DHT22;4480;52.370;9.748;2023-02-01T08:20:00;5.60;99.90
8888;DHT22;4480;52.370;9.748;2023-02-01T08:22:31;5.60;99.90
8888;DHT22;4480;52.370;9.748;2023-02-01T08:24:59;5.60;99.90
8888;DHT22;4480;52.370;9.748;2023-02-01T08:27:26;5.70;99.90
8888;DHT22;4480;52.370;9.748;2023-02-01T08:29:53;5.70;99.90
8888;DHT22;4480;52.370;9.748;2023-02-01T08:32:20;5.70;99.90
8888;DHT22;4480;52.370;9.748;2023-02-01T08:34:47;5.80;99.90
8888;DHT22;4480;52.370;9.748;2023-02-01T08:37:14;5.80;99.90
8888;DHT22;4480;52.370;9.748;2023-02-01T08:39:40;5.80;99.90
8888;DHT22;4480;52.370;9.748;2023-02-01T08:42:10;5.90;99.90
8888;DHT22;4480;52.370;9.748;2023-02-01T08:44:54;5.80;99.90
8888;DHT22;4480;52.370;9.748;2023-02-01T08:47:21;5.90;99.90
8888;DHT22;4480;52.370;9.748;2023-02-01T08:49:48;5.90;99.90
8888;DHT22;4480;52.370;9.748;2023-02-01T08:52:15;5.90;99.90
8888;DHT22;4480;52.370;9.748;2023-02-01T08:54:42;5.90;99.90
8888;DHT22;4480;52.370;9.748;2023-02-01T08:57:10;6.00;99.90
8888;DHT22;4480;52.370;9.748;2023-02-01T08:59:37;6.00;99.90
8888;DHT22;4480;52.370;9.748;2023-02-01T09:02:04;6.10;99.90
8888;DHT22;4480;52.370;9.748;2023-02-01T09:04:31;6.10;99.90
8888;DHT22;4480;52.370;9.748;2023-02-01T09:06:58;6.10;99.90
8888;DHT22;4480;52.370;9.748;2023-02-01T09:09:27;6.20;99.90
8888;DHT22;4480;52.370;9.748;2023-02-01T09:11:54;6.20;99.90
8888;DHT22;4480;52.370;9.748;2023-02-01T09:14:22;6.30;99.90
8888;DHT22;4480;52.370;9.748;2023-02-01T09:16:49;6.40;99.90
8888;DHT22;4480;52.370;9.748;2023-02-01T09:19:15;6.50;99.90
8888;DHT22;4480;52.370;9.748;2023-02-01T09:21:42;6.60;99.90
8888;DHT22;4480;52.370;9.748;2023-02-01T09:24:10;6.60;99.90
8888;DHT22;4480;52.370;9.748;2023-02-01T09:26:37;6.60;99.90
8888;DHT22;4480;52.370;9.748;2023-02-01T09:29:04;6.70;99.90
8888;DHT22;4480;52.370;9.748;2023-02-01T09:31:38;6.70;99.90
8888;DHT22;4480;52.370;9.748;2023-02-01T09:34:06;6.70;99.90
8888;DHT22;4480;52.370;9.748;2023-02-01T09:36:33;6.70;99.90
8888;DHT22;4480;52.370;9.748;2023-02-01T09:39:01;6.70;99.90
8888;DHT22;4480;52.370;9.748;2023-02-01T09:41:38;6.70;99.90
8888;DHT22;4480;52.370;9.748;2023-02-01T09:44:14;6.80;99.90
8888;DHT22;4480;52.370;9.748;2023-02-01T09:46:45;6.80;99.90
8888;DHT22;4480;52.370;9.748;2023-02-01T09:49:16;6.80;99.90
8888;DHT22;4480;52.370;9.748;2023-02-01T09:51:48;6.80;99.90
8888;DHT22;4480;52.370;9.748;2023-02-01T09:54:17;6.90;99.90
8888;DHT22;4480;52.370;9.748;2023-02-01T09:56:47;6.90;99.90
8888;DHT22;4480;52.370;9.748;2023-02-01T09:59:29;6.90;99.90
8888;DHT22;4480;52.370;9.748;2023-02-01T10:01:58;6.90;99.90
8888;DHT22;4480;52.370;9.748;2023-02-01T10:04:26;6.90;99.90
8888;DHT22;4480;52.370;9.748;2023-02-01T10:07:01;6.90;99.90
8888;DHT22;4480;52.370;9.748;2023-02-01T10:09:47;6.90;99.90
8888;DHT22;4480;52.370;9.748;2023-02-01T10:12:41;6.90;99.90
8888;DHT22;4480;52.370;9.748;2023-02-01T10:15:19;7.00;99.90
8888;DHT22;4480;52.370;9.748;2023-02-01T10:18:00;7.00;99.90
8888;DHT22;4480;52.370;9.748;2023-02-01T10:20:34;7.10;99.90
8888;DHT22;4480;52.370;9.748;2023-02-01T10:23:14;7.10;99.90
8888;DHT22;4480;52.370;9.748;2023-02-01T10:25:53;7.10;99.90
8888;DHT22;4480;52.370;9.748;2023-02-01T10:28:21;7.20;99.90
8888;DHT22;4480;52.370;9.748;2023-02-01T10:30:51;7.20;99.90
8888;DHT22;4480;52.370;9.748;2023-02-01T10:33:25;7.20;99.90
8888;DHT22;4480;52.370;9.748;2023-02-01T10:35:58;7.30;99.90
8888;DHT22;4480;52.370;9.748;2023-02-01T10:38:27;7.30;99.90
8888;DHT22;4480;52.370;9.748;2023-02-01T10:40:57;7.40;99.90
8888;DHT22;4480;52.370;9.748;2023-02-01T10:43:25;7.40;99.90
8888;DHT22;4480;52.370;9.748;2023-02-01T10:45:52;7.40;99.90
8888;DHT22;4480;52.370;9.748;2023-02-01T10:48:18;7.40;99.90
8888;DHT22;4480;52.370;9.748;2023-02-01T10:50:53;7.40;99.90
8888;DHT22;4480;52.370;9.748;2023-02-01T10:53:25;7.40;99.90
8888;DHT22;4480;52.370;9.748;2023-02-01T10:55:55;7.40;99.90
8888;DHT22;4480;52.370;9.748;2023-02-01T10:58:27;7.30;99.90
8888;DHT22;4480;52.370;9.748;2023-02-01T11:00:58;7.30;99.90
8888;DHT22;4480;52.370;9.748;2023-02-01T11:03:33;7.30;99.90
8888;DHT22;4480;52.370;9.748;2023-02-01T11:06:04;7.30;99.90
8888;DHT22;4480;52.370;9.748;2023-02-01T11:08:42;7.20;99.90
8888;DHT22;4480;52.370;9.748;2023-02-01T11:11:09;7.20;99.90
8888;DHT22;4480;52.370;9.748;2023-02-01T11:13:39;7.20;99.90
8888;DHT22;4480;52.370;9.748;2023-02-01T11:16:08;7.20;99.90
8888;DHT22;4480;52.370;9.748;2023-02-01T11:18:38;7.30;99.90
8888;DHT22;4480;52.370;9.748;2023-02-01T11:21:08;7.30;99.90
8888;DHT22;4480;52.370;9.748;2023-02-01T11:23:40;7.30;99.90
8888;DHT22;4480;52.370;9.748;2023-02-01T11:26:12;7.30;99.90
8888;DHT22;4480;52.370;9.748;2023-02-01T11:28:46;7.30;99.90
8888;DHT22;4480;52.370;9.748;2023-02-01T11:31:16;7.30;99.90
8888;DHT22;4480;52.370;9.748;2023-02-01T11:33:48;7.30;99.90
8888;DHT22;4480;52.370;9.748;2023-02-01T11:36:19;7.30;99.90
8888;DHT22;4480;52.370;9.748;2023-02-01T11:38:52;7.30;99.90
8888;DHT22;4480;52.370;9.748;2023-02-01T11:41:25;7.40;99.90
8888;DHT22;4480;52.370;9.748;2023-02-01T11:43:55;7.40;99.90
8888;DHT22;4480;52.370;9.748;2023-02-01T11:46:27;7.60;99.80
8888;DHT22;4480;52.370;9.748;2023-02-01T11:48:56;7.70;99.60
8888;DHT22;4480;52.370;9.748;2023-02-01T11:51:42;7.70;99.90
8888;DHT22;4480;52.370;9.748;2023-02-01T11:54:22;7.80;99.90
8888;DHT22;4480;52.370;9.748;2023-02-01T11:57:00;7.80;99.50
8888;DHT22;4480;52.370;9.748;2023-02-01T11:59:52;7.70;99.60
8888;DHT22;4480;52.370;9.748;2023-02-01T12:02:47;7.90;99.50
8888;DHT22;4480;52.370;9.748;2023-02-01T12:05:34;7.90;98.40
8888;DHT22;4480;52.370;9.748;2023-02-01T12:08:26;8.00;97.80
8888;DHT22;4480;52.370;9.748;2023-02-01T12:11:18;8.10;97.80
8888;DHT22;4480;52.370;9.748;2023-02-01T12:13:52;8.30;97.70
8888;DHT22;4480;52.370;9.748;2023-02-01T12:16:28;8.40;96.80
8888;DHT22;4480;52.370;9.748;2023-02-01T12:19:16;8.40;95.90
8888;DHT22;4480;52.370;9.748;2023-02-01T12:25:09;8.20;96.10
8888;DHT22;4480;52.370;9.748;2023-02-01T12:27:59;8.10;96.70
8888;DHT22;4480;52.370;9.748;2023-02-01T12:30:48;7.90;98.00
8888;DHT22;4480;52.370;9.748;2023-02-01T12:33:23;7.70;99.90
8888;DHT22;4480;52.370;9.748;2023-02-01T12:36:07;7.40;99.90
8888;DHT22;4480;52.370;9.748;2023-02-01T12:38:44;7.20;99.90
8888;DHT22;4480;52.370;9.748;2023-02-01T12:44:29;6.80;99.90
8888;DHT22;4480;52.370;9.748;2023-02-01T12:46:59;6.60;99.90
8888;DHT22;4480;52.370;9.748;2023-02-01T12:49:38;6.50;99.90
8888;DHT22;4480;52.370;9.748;2023-02-01T12:52:12;6.30;99.90
8888;DHT22;4480;52.370;9.748;2023-02-01T12:54:45;6.10;99.90
8888;DHT22;4480;52.370;9.748;2023-02-01T12:57:17;6.10;99.90
8888;DHT22;4480;52.370;9.748;2023-02-01T12:59:48;6.10;99.90
8888;DHT22;4480;52.370;9.748;2023-02-01T13:02:22;6.10;99.90
8888;DHT22;4480;52.370;9.748;2023-02-01T13:04:57;6.00;99.90
8888;DHT22;4480;52.370;9.748;2023-02-01T13:07:30;5.90;99.90
8888;DHT22;4480;52.370;9.748;2023-02-01T13:10:05;5.90;99.90
8888;DHT22;4480;52.370;9.748;2023-02-01T13:12:44;5.80;99.90
8888;DHT22;4480;52.370;9.748;2023-02-01T13:15:19;5.70;99.90
8888;DHT22;4480;52.370;9.748;2023-02-01T13:17:49;5.60;99.90
8888;DHT22;4480;52.370;9.748;2023-02-01T13:20:19;5.60;99.90
8888;DHT22;4480;52.370;9.748;2023-02-01T13:22:51;5.50;99.90
8888;DHT22;4480;52.370;9.748;2023-02-01T13:25:27;5.40;99.90
8888;DHT22;4480;52.370;9.748;2023-02-01T13:28:06;5.30;99.90
8888;DHT22;4480;52.370;9.748;2023-02-01T13:30:47;5.30;99.90
8888;DHT22;4480;52.370;9.748;2023-02-01T13:33:40;5.20;99.90
8888;DHT22;4480;52.370;9.748;2023-02-01T13:36:28;5.10;99.90
8888;DHT22;4480;52.370;9.748;2023-02-01T13:39:25;4.30;99.90
8888;DHT22;4480;52.370;9.748;2023-02-01T13:41:57;3.10;99.90
8888;DHT22;4480;52.370;9.748;2023-02-01T13:44:30;2.30;99.90
8888;DHT22;4480;52.370;9.748;2023-02-01T13:47:02;1.90;99.90
8888;DHT22;4480;52.370;9.748;2023-02-01T13:49:33;1.70;99.90
8888;DHT22;4480;52.370;9.748;2023-02-01T13:52:04;1.70;99.90
8888;DHT22;4480;52.370;9.748;2023-02-01T13:54:33;1.80;99.90
8888;DHT22;4480;52.370;9.748;2023-02-01T13:57:01;2.00;99.90
8888;DHT22;4480;52.370;9.748;2023-02-01T14:06:14;2.20;99.90
8888;DHT22;4480;52.370;9.748;2023-02-01T14:11:40;2.20;99.90
8888;DHT22;4480;52.370;9.748;2023-02-01T14:17:34;2.20;99.90
8888;DHT22;4480;52.370;9.748;2023-02-01T14:23:28;2.20;99.90
8888;DHT22;4480;52.370;9.748;2023-02-01T14:26:13;2.20;99.90
8888;DHT22;4480;52.370;9.748;2023-02-01T14:28:43;2.30;99.90
8888;DHT22;4480;52.370;9.748;2023-02-01T14:34:00;2.40;99.90
8888;DHT22;4480;52.370;9.748;2023-02-01T14:36:39;2.40;99.90
8888;DHT22;4480;52.370;9.748;2023-02-01T14:39:20;2.40;99.90
8888;DHT22;4480;52.370;9.748;2023-02-01T14:41:47;2.50;99.90
8888;DHT22;4480;52.370;9.748;2023-02-01T14:44:28;2.50;99.90
8888;DHT22;4480;52.370;9.748;2023-02-01T14:50:17;2.70;99.90
8888;DHT22;4480;52.370;9.748;2023-02-01T14:52:47;2.70;99.90
8888;DHT22;4480;52.370;9.748;2023-02-01T14:55:17;2.70;99.90
8888;DHT22;4480;52.370;9.748;2023-02-01T14:57:48;2.70;99.90
8888;DHT22;4480;52.370;9.748;2023-02-01T15:00:23;2.70;99.90
8888;DHT22;4480;52.370;9.748;2023-02-01T15:02:52;2.70;99.90
8888;DHT22;4480;52.370;9.748;2023-02-01T15:05:26;2.70;99.90
8888;DHT22;4480;52.370;9.748;2023-02-01T15:07:58;2.70;99.90
8888;DHT22;4480;52.370;9.748;2023-02-01T15:10:30;2.70;99.90
8888;DHT22;4480;52.370;9.748;2023-02-01T15:12:57;2.70;99.90
8888;DHT22;4480;52.370;9.748;2023-02-01T15:15:24;2.70;99.90
8888;DHT22;4480;52.370;9.748;2023-02-01T15:17:53;2.80;99.90
8888;DHT22;4480;52.370;9.748;2023-02-01T15:20:22;2.80;99.90
8888;DHT22;4480;52.370;9.748;2023-02-01T15:22:53;2.90;99.90
8888;DHT22;4480;52.370;9.748;2023-02-01T15:25:23;2.90;99.90
8888;DHT22;4480;52.370;9.748;2023-02-01T15:27:51;2.90;99.90
8888;DHT22;4480;52.370;9.748;2023-02-01T15:30:20;2.90;99.90
8888;DHT22;4480;52.370;9.748;2023-02-01T15:32:48;3.00;99.90
8888;DHT22;4480;52.370;9.748;2023-02-01T15:35:36;3.00;99.90
8888;DHT22;4480;52.370;9.748;2023-02-01T15:38:35;3.00;99.90
8888;DHT22;4480;52.370;9.748;2023-02-01T15:41:05;2.90;99.90
8888;DHT22;4480;52.370;9.748;2023-02-01T15:43:37;2.90;99.90
8888;DHT22;4480;52.370;9.748;2023-02-01T15:46:09;2.90;99.90
8888;DHT22;4480;52.370;9.748;2023-02-01T15:48:40;2.90;99.90
8888;DHT22;4480;52.370;9.748;2023-02-01T15:51:13;2.90;99.90
8888;DHT22;4480;52.370;9.748;2023-02-01T15:53:46;2.90;99.90
8888;DHT22;4480;52.370;9.748;2023-02-01T15:56:22;2.90;99.90
8888;DHT22;4480;52.370;9.748;2023-02-01T15:58:53;2.90;99.90
8888;DHT22;4480;52.370;9.748;2023-02-01T16:01:22;2.90;99.90
8888;DHT22;4480;52.370;9.748;2023-02-01T16:03:49;2.90;99.90
8888;DHT22;4480;52.370;9.748;2023-02-01T16:06:30;2.90;99.90
8888;DHT22;4480;52.370;9.748;2023-02-01T16:09:03;2.90;99.90
8888;DHT22;4480;52.370;9.748;2023-02-01T16:11:31;3.00;99.90
8888;DHT22;4480;52.370;9.748;2023-02-01T16:14:00;3.00;99.90
8888;DHT22;4480;52.370;9.748;2023-02-01T16:16:29;2.90;99.90
8888;DHT22;4480;52.370;9.748;2023-02-01T16:18:56;3.00;99.90
8888;DHT22;4480;52.370;9.748;2023-02-01T16:21:23;2.90;99.90
8888;DHT22;4480;52.370;9.748;2023-02-01T16:23:50;2.90;99.90
8888;DHT22;4480;52.370;9.748;2023-02-01T16:26:18;2.90;99.90
8888;DHT22;4480;52.370;9.748;2023-02-01T16:28:45;3.00;99.90
8888;DHT22;4480;52.370;9.748;2023-02-01T16:31:14;3.00;99.90
8888;DHT22;4480;52.370;9.748;2023-02-01T16:33:46;3.00;99.90
8888;DHT22;4480;52.370;9.748;2023-02-01T16:36:13;3.10;99.90
8888;DHT22;4480;52.370;9.748;2023-02-01T16:38:40;3.10;99.90
8888;DHT22;4480;52.370;9.748;2023-02-01T16:41:09;3.20;99.90
8888;DHT22;4480;52.370;9.748;2023-02-01T16:43:36;3.30;99.90
8888;DHT22;4480;52.370;9.748;2023-02-01T16:46:04;3.30;99.90
8888;DHT22;4480;52.370;9.748;2023-02-01T16:48:35;3.40;99.90
8888;DHT22;4480;52.370;9.748;2023-02-01T16:51:08;3.50;99.90
8888;DHT22;4480;52.370;9.748;2023-02-01T16:53:36;3.60;99.90
8888;DHT22;4480;52.370;9.748;2023-02-01T16:56:11;3.60;99.90
8888;DHT22;4480;52.370;9.748;2023-02-01T16:58:39;3.70;99.90
8888;DHT22;4480;52.370;9.748;2023-02-01T17:01:08;3.70;99.90
8888;DHT22;4480;52.370;9.748;2023-02-01T17:03:37;3.70;99.90
8888;DHT22;4480;52.370;9.748;2023-02-01T17:06:05;3.80;99.90
8888;DHT22;4480;52.370;9.748;2023-02-01T17:08:35;3.90;99.90
8888;DHT22;4480;52.370;9.748;2023-02-01T17:11:03;4.10;99.90
8888;DHT22;4480;52.370;9.748;2023-02-01T17:13:30;4.10;99.90
8888;DHT22;4480;52.370;9.748;2023-02-01T17:16:00;4.10;99.90
8888;DHT22;4480;52.370;9.748;2023-02-01T17:18:31;4.20;99.90